Time;durP1;ratioP1;P1;durP2;ratioP2;P2;SDS_P1;SDS_P2;PMS_P1;PMS_P2;Temp;Humidity;BMP_temperature;BMP_pressure;BME280_temperature;BME280_humidity;BME280_pressure;Samples;Min_cycle;Max_cycle;Signal;HPM_P1;HPM_P2
2024/03/24 00:01:12;;;;;;;7.75;3.30;;;;;;;;;;6179243;23;20024;-68
2024/03/24 00:03:38;;;;;;;5.13;2.90;;;;;;;;;;6171950;23;20116;-69
2024/03/24 00:06:03;;;;;;;8.98;3.13;;;;;;;;;;6178466;23;20455;-69
2024/03/24 00:08:30;;;;;;;13.77;3.72;;;;;;;;;;6172119;23;20105;-69
2024/03/24 00:10:57;;;;;;;9.73;3.13;;;;;;;;;;6173517;23;20278;-69
2024/03/24 00:13:22;;;;;;;9.32;3.50;;;;;;;;;;6174669;23;20027;-69
2024/03/24 00:15:48;;;;;;;6.50;3.58;;;;;;;;;;6171481;23;20024;-69
2024/03/24 00:18:13;;;;;;;10.75;3.97;;;;;;;;;;6179657;23;20027;-69
2024/03/24 00:20:39;;;;;;;6.13;3.15;;;;;;;;;;6170739;23;20026;-69
2024/03/24 00:23:07;;;;;;;8.63;3.55;;;;;;;;;;6179396;23;20035;-69
2024/03/24 00:25:33;;;;;;;12.27;3.13;;;;;;;;;;6172573;23;20078;-69
2024/03/24 00:27:58;;;;;;;7.13;4.13;;;;;;;;;;6168281;23;20033;-69
2024/03/24 00:30:23;;;;;;;9.93;3.20;;;;;;;;;;6153982;23;20032;-71
2024/03/24 00:32:51;;;;;;;7.80;3.47;;;;;;;;;;6170436;23;20027;-69
2024/03/24 00:35:17;;;;;;;6.22;3.20;;;;;;;;;;6153630;23;20032;-69
2024/03/24 00:37:42;;;;;;;9.43;3.35;;;;;;;;;;6171247;23;20025;-68
2024/03/24 00:40:09;;;;;;;8.68;3.42;;;;;;;;;;6171045;23;20044;-68
2024/03/24 00:42:35;;;;;;;10.00;3.45;;;;;;;;;;6177998;23;20025;-69
2024/03/24 00:45:00;;;;;;;10.20;3.90;;;;;;;;;;6170773;23;20328;-71
2024/03/24 00:47:26;;;;;;;8.98;3.72;;;;;;;;;;6179150;23;20021;-69
2024/03/24 00:49:51;;;;;;;7.80;3.85;;;;;;;;;;6171092;23;20478;-69
2024/03/24 00:52:17;;;;;;;7.22;3.88;;;;;;;;;;6177956;23;20021;-69
2024/03/24 00:54:42;;;;;;;7.85;4.45;;;;;;;;;;6178134;23;20021;-69
2024/03/24 00:57:07;;;;;;;8.65;4.05;;;;;;;;;;6171749;23;20024;-69
2024/03/24 00:59:33;;;;;;;6.78;3.53;;;;;;;;;;6178170;23;20023;-68
2024/03/24 01:01:58;;;;;;;8.50;4.53;;;;;;;;;;6171762;23;20095;-69
2024/03/24 01:04:24;;;;;;;8.98;4.30;;;;;;;;;;6173041;23;20017;-69
2024/03/24 01:06:49;;;;;;;7.78;4.25;;;;;;;;;;6174381;23;20031;-69
2024/03/24 01:09:14;;;;;;;10.80;4.93;;;;;;;;;;6170217;23;20017;-69
2024/03/24 01:11:40;;;;;;;8.70;4.53;;;;;;;;;;6177679;23;20020;-69
2024/03/24 01:14:06;;;;;;;9.75;5.05;;;;;;;;;;6170884;23;20112;-70
2024/03/24 01:16:31;;;;;;;7.22;4.80;;;;;;;;;;6178925;23;20024;-69
2024/03/24 01:18:57;;;;;;;10.57;5.30;;;;;;;;;;6166653;23;20024;-69
2024/03/24 01:21:23;;;;;;;9.90;5.47;;;;;;;;;;6174858;23;20475;-70
2024/03/24 01:23:48;;;;;;;7.05;4.72;;;;;;;;;;6178012;23;20029;-70
2024/03/24 01:26:14;;;;;;;8.50;5.50;;;;;;;;;;6171744;23;20027;-71
2024/03/24 01:28:39;;;;;;;8.63;4.40;;;;;;;;;;6176296;23;20025;-71
2024/03/24 01:31:04;;;;;;;7.70;5.05;;;;;;;;;;6169613;23;20029;-71
2024/03/24 01:33:30;;;;;;;9.77;5.30;;;;;;;;;;6168738;23;20021;-69
2024/03/24 01:35:56;;;;;;;7.70;5.25;;;;;;;;;;6174934;23;20021;-74
2024/03/24 01:38:21;;;;;;;11.65;5.25;;;;;;;;;;6169654;23;20025;-73
2024/03/24 01:40:47;;;;;;;7.38;4.63;;;;;;;;;;6175005;23;20021;-70
2024/03/24 01:43:13;;;;;;;10.23;5.40;;;;;;;;;;6170003;23;20094;-70
2024/03/24 01:45:38;;;;;;;8.48;5.00;;;;;;;;;;6173298;23;20483;-70
2024/03/24 01:48:04;;;;;;;6.70;5.00;;;;;;;;;;6168808;23;20082;-69
2024/03/24 01:50:29;;;;;;;9.52;5.68;;;;;;;;;;6169489;23;20032;-69
2024/03/24 01:52:55;;;;;;;9.15;5.57;;;;;;;;;;6175107;23;20021;-69
2024/03/24 01:55:20;;;;;;;7.20;5.70;;;;;;;;;;6169533;23;20066;-69
2024/03/24 01:57:46;;;;;;;12.02;5.10;;;;;;;;;;6176358;23;20027;-70
2024/03/24 02:00:11;;;;;;;9.93;5.97;;;;;;;;;;6172407;23;20059;-70
2024/03/24 02:02:37;;;;;;;10.88;6.25;;;;;;;;;;6164532;23;20024;-69
2024/03/24 02:05:02;;;;;;;9.98;6.70;;;;;;;;;;6176409;23;20343;-70
2024/03/24 02:07:28;;;;;;;12.95;5.80;;;;;;;;;;6169664;23;20035;-71
2024/03/24 02:09:53;;;;;;;8.95;5.88;;;;;;;;;;6176251;23;20020;-71
2024/03/24 02:12:19;;;;;;;13.00;6.85;;;;;;;;;;6176634;23;20095;-70
2024/03/24 02:14:44;;;;;;;11.00;7.05;;;;;;;;;;6165469;23;20024;-71
2024/03/24 02:17:09;;;;;;;8.25;5.90;;;;;;;;;;6171709;23;20021;-70
2024/03/24 02:19:35;;;;;;;11.55;5.63;;;;;;;;;;6169391;23;20020;-72
2024/03/24 02:22:00;;;;;;;9.25;4.97;;;;;;;;;;6176250;23;20021;-70
2024/03/24 02:24:26;;;;;;;11.40;5.68;;;;;;;;;;6171090;23;20035;-69
2024/03/24 02:26:51;;;;;;;12.23;6.22;;;;;;;;;;6173650;23;20025;-69
2024/03/24 02:29:17;;;;;;;8.45;5.38;;;;;;;;;;6146879;23;20030;-72
2024/03/24 02:31:42;;;;;;;10.35;5.20;;;;;;;;;;6164539;23;20032;-71
2024/03/24 02:34:07;;;;;;;9.38;5.20;;;;;;;;;;6175757;23;20025;-72
2024/03/24 02:36:33;;;;;;;10.02;5.90;;;;;;;;;;6170270;23;20024;-70
2024/03/24 02:38:58;;;;;;;7.00;4.68;;;;;;;;;;6175132;23;20025;-70
2024/03/24 02:41:24;;;;;;;11.05;4.93;;;;;;;;;;6176488;23;20043;-71
2024/03/24 02:43:50;;;;;;;7.80;4.53;;;;;;;;;;6162877;23;20320;-71
2024/03/24 02:46:15;;;;;;;8.77;5.28;;;;;;;;;;6147424;23;20104;-71
2024/03/24 02:48:41;;;;;;;9.95;5.53;;;;;;;;;;6170591;23;20082;-71
2024/03/24 02:51:06;;;;;;;9.93;5.78;;;;;;;;;;6178512;23;20351;-71
2024/03/24 02:53:31;;;;;;;11.02;6.03;;;;;;;;;;6177657;23;20025;-71
2024/03/24 02:55:57;;;;;;;19.42;6.45;;;;;;;;;;6147040;23;20020;-72
2024/03/24 02:58:22;;;;;;;13.98;6.35;;;;;;;;;;6174137;23;20079;-71
2024/03/24 03:00:48;;;;;;;11.35;6.32;;;;;;;;;;6166212;23;20028;-69
2024/03/24 03:03:13;;;;;;;12.70;5.95;;;;;;;;;;6177843;23;20025;-69
2024/03/24 03:05:38;;;;;;;8.65;5.78;;;;;;;;;;6177618;23;20510;-69
2024/03/24 03:08:04;;;;;;;11.38;6.53;;;;;;;;;;6170734;23;20074;-71
2024/03/24 03:10:30;;;;;;;14.25;6.57;;;;;;;;;;6178393;23;20024;-69
2024/03/24 03:12:57;;;;;;;9.60;6.30;;;;;;;;;;6165820;23;20768;-69
2024/03/24 03:15:22;;;;;;;12.70;7.25;;;;;;;;;;6173623;23;20419;-69
2024/03/24 03:17:47;;;;;;;11.80;6.20;;;;;;;;;;6173870;23;20028;-70
2024/03/24 03:20:13;;;;;;;12.82;6.60;;;;;;;;;;6174610;23;20572;-69
2024/03/24 03:22:39;;;;;;;10.13;5.90;;;;;;;;;;6177358;23;20777;-69
2024/03/24 03:25:06;;;;;;;13.35;6.97;;;;;;;;;;6171701;23;20024;-70
2024/03/24 03:27:32;;;;;;;12.93;6.10;;;;;;;;;;6147958;23;20020;-69
2024/03/24 03:29:57;;;;;;;11.13;6.50;;;;;;;;;;6165829;23;20063;-69
2024/03/24 03:32:23;;;;;;;11.75;6.70;;;;;;;;;;6176759;23;20025;-70
2024/03/24 03:34:48;;;;;;;11.30;6.22;;;;;;;;;;6177693;23;20485;-70
2024/03/24 03:37:13;;;;;;;12.65;7.05;;;;;;;;;;6170619;23;20017;-70
2024/03/24 03:39:39;;;;;;;10.52;5.55;;;;;;;;;;6177510;23;20455;-69
2024/03/24 03:42:04;;;;;;;10.77;6.18;;;;;;;;;;6165043;23;20475;-71
2024/03/24 03:44:30;;;;;;;13.50;6.80;;;;;;;;;;6150424;23;20028;-70
2024/03/24 03:46:55;;;;;;;14.52;7.15;;;;;;;;;;6174379;23;20060;-69
2024/03/24 03:49:21;;;;;;;13.38;6.13;;;;;;;;;;6171501;23;20509;-73
2024/03/24 03:51:53;;;;;;;12.95;6.90;;;;;;;;;;6178754;23;20020;-70
2024/03/24 03:54:18;;;;;;;14.93;6.93;;;;;;;;;;6169018;23;20079;-71
2024/03/24 03:56:44;;;;;;;10.52;5.53;;;;;;;;;;6173022;23;20026;-70
2024/03/24 03:59:09;;;;;;;13.45;6.97;;;;;;;;;;6177821;23;20032;-70
2024/03/24 04:01:34;;;;;;;11.95;7.18;;;;;;;;;;6172070;23;20340;-69
2024/03/24 04:04:00;;;;;;;13.38;6.10;;;;;;;;;;6178111;23;20063;-69
2024/03/24 04:06:26;;;;;;;12.52;6.32;;;;;;;;;;6171303;23;20424;-69
2024/03/24 04:08:51;;;;;;;8.73;3.38;;;;;;;;;;6174670;23;20087;-72
2024/03/24 04:11:17;;;;;;;3.75;1.70;;;;;;;;;;6174330;23;20021;-73
2024/03/24 04:13:42;;;;;;;4.00;1.38;;;;;;;;;;6172051;23;20017;-74
2024/03/24 04:16:07;;;;;;;2.13;0.98;;;;;;;;;;6178214;23;21024;-72
2024/03/24 04:18:33;;;;;;;3.97;1.35;;;;;;;;;;6170878;23;20025;-70
2024/03/24 04:21:02;;;;;;;2.90;0.95;;;;;;;;;;6177989;23;20186;-71
2024/03/24 04:23:29;;;;;;;4.30;1.27;;;;;;;;;;6166803;23;20884;-71
2024/03/24 04:25:54;;;;;;;3.85;1.40;;;;;;;;;;6175850;23;20025;-71
2024/03/24 04:28:20;;;;;;;2.28;1.10;;;;;;;;;;6177122;23;20752;-70
2024/03/24 04:30:45;;;;;;;5.53;1.42;;;;;;;;;;6171489;23;20028;-69
2024/03/24 04:33:11;;;;;;;2.65;1.17;;;;;;;;;;6177909;23;20039;-70
2024/03/24 04:35:36;;;;;;;1.67;1.17;;;;;;;;;;6167131;23;20494;-70
2024/03/24 04:38:02;;;;;;;2.83;1.20;;;;;;;;;;6172707;23;20100;-70
2024/03/24 04:40:27;;;;;;;3.50;1.20;;;;;;;;;;6177972;23;20794;-70
2024/03/24 04:42:53;;;;;;;3.20;1.33;;;;;;;;;;6170261;23;20021;-70
2024/03/24 04:45:19;;;;;;;2.17;1.38;;;;;;;;;;6178269;23;20067;-70
2024/03/24 04:47:44;;;;;;;2.47;1.48;;;;;;;;;;6169387;23;20028;-70
2024/03/24 04:50:09;;;;;;;3.17;1.40;;;;;;;;;;6148367;23;20024;-71
2024/03/24 04:52:35;;;;;;;3.35;1.27;;;;;;;;;;6173262;23;20071;-71
2024/03/24 04:55:01;;;;;;;2.30;1.10;;;;;;;;;;6171051;23;20505;-71
2024/03/24 04:57:27;;;;;;;2.55;1.40;;;;;;;;;;6178255;23;20095;-72
2024/03/24 04:59:53;;;;;;;4.97;1.17;;;;;;;;;;6171073;23;20025;-72
2024/03/24 05:02:18;;;;;;;2.35;1.05;;;;;;;;;;6178461;23;20024;-72
2024/03/24 05:04:43;;;;;;;5.97;1.33;;;;;;;;;;6168500;23;20336;-72
2024/03/24 05:07:09;;;;;;;1.85;1.00;;;;;;;;;;6172752;23;20028;-72
2024/03/24 05:09:35;;;;;;;3.22;1.25;;;;;;;;;;6178714;23;20066;-73
2024/03/24 05:12:00;;;;;;;3.50;0.82;;;;;;;;;;6170601;23;20025;-72
2024/03/24 05:14:26;;;;;;;3.60;1.30;;;;;;;;;;6178864;23;20333;-71
2024/03/24 05:16:53;;;;;;;4.53;1.35;;;;;;;;;;6169503;23;20035;-70
2024/03/24 05:19:18;;;;;;;2.95;1.10;;;;;;;;;;6173518;23;20040;-68
2024/03/24 05:21:45;;;;;;;3.08;0.98;;;;;;;;;;6173544;23;20029;-69
2024/03/24 05:24:11;;;;;;;2.72;0.80;;;;;;;;;;6145251;23;20021;-69
2024/03/24 05:26:36;;;;;;;2.15;1.15;;;;;;;;;;6177283;23;20020;-69
2024/03/24 05:29:03;;;;;;;4.97;1.50;;;;;;;;;;6170638;23;20513;-69
2024/03/24 05:31:29;;;;;;;2.33;1.33;;;;;;;;;;6178876;23;20028;-70
2024/03/24 05:33:54;;;;;;;4.03;1.33;;;;;;;;;;6174045;23;20024;-69
2024/03/24 05:36:20;;;;;;;5.28;1.35;;;;;;;;;;6168396;23;20020;-69
2024/03/24 05:38:45;;;;;;;2.83;1.20;;;;;;;;;;6178878;23;20024;-69
2024/03/24 05:41:11;;;;;;;5.95;1.50;;;;;;;;;;6172747;23;20021;-69
2024/03/24 05:43:37;;;;;;;4.32;1.38;;;;;;;;;;6178647;23;20081;-69
2024/03/24 05:46:05;;;;;;;3.63;1.45;;;;;;;;;;6173209;23;20035;-68
2024/03/24 05:48:31;;;;;;;;;;;;;;;;;;6174087;23;20477;-69
2024/03/24 05:50:59;;;;;;;4.10;1.45;;;;;;;;;;6174242;23;19916;-68
2024/03/24 05:53:25;;;;;;;2.95;1.10;;;;;;;;;;6172066;23;20725;-68
2024/03/24 05:55:51;;;;;;;3.22;1.60;;;;;;;;;;6177936;23;20031;-69
2024/03/24 05:58:22;;;;;;;2.67;1.20;;;;;;;;;;6172889;23;20024;-69
2024/03/24 06:00:47;;;;;;;3.75;1.40;;;;;;;;;;6178755;23;20028;-69
2024/03/24 06:03:13;;;;;;;3.35;1.25;;;;;;;;;;6175193;23;20020;-69
2024/03/24 06:05:39;;;;;;;4.22;1.63;;;;;;;;;;6167192;23;20028;-69
2024/03/24 06:08:05;;;;;;;6.53;1.50;;;;;;;;;;6179706;23;20192;-69
2024/03/24 06:10:30;;;;;;;4.32;1.33;;;;;;;;;;6170825;23;20031;-69
2024/03/24 06:12:56;;;;;;;7.68;1.52;;;;;;;;;;6178690;23;20021;-69
2024/03/24 06:15:21;;;;;;;5.45;1.65;;;;;;;;;;6175054;23;20404;-71
2024/03/24 06:17:47;;;;;;;6.22;2.10;;;;;;;;;;6168772;23;20024;-69
2024/03/24 06:20:12;;;;;;;5.82;1.75;;;;;;;;;;6177360;23;20017;-69
2024/03/24 06:22:38;;;;;;;2.60;1.33;;;;;;;;;;6173842;23;20020;-70
2024/03/24 06:25:05;;;;;;;5.82;1.45;;;;;;;;;;6181105;23;20016;-70
2024/03/24 06:27:30;;;;;;;2.38;1.30;;;;;;;;;;6174584;23;20098;-69
2024/03/24 06:29:56;;;;;;;4.05;1.20;;;;;;;;;;6178229;23;20024;-70
2024/03/24 06:32:21;;;;;;;3.20;1.10;;;;;;;;;;6174225;23;20030;-70
2024/03/24 06:34:47;;;;;;;3.80;1.30;;;;;;;;;;6171008;23;20081;-70
2024/03/24 06:37:13;;;;;;;4.13;1.00;;;;;;;;;;6180343;23;20386;-70
2024/03/24 06:39:38;;;;;;;4.93;1.60;;;;;;;;;;6173132;23;20024;-70
2024/03/24 06:42:04;;;;;;;4.65;1.75;;;;;;;;;;6180625;23;20091;-70
2024/03/24 06:44:37;;;;;;;8.18;1.90;;;;;;;;;;6177233;23;20032;-69
2024/03/24 06:47:03;;;;;;;8.85;1.60;;;;;;;;;;6142807;23;20036;-70
2024/03/24 06:49:28;;;;;;;6.57;1.90;;;;;;;;;;6180149;23;20206;-70
2024/03/24 06:51:53;;;;;;;7.47;2.15;;;;;;;;;;6173067;23;20478;-70
2024/03/24 06:54:19;;;;;;;4.63;2.17;;;;;;;;;;6181179;23;20454;-70
2024/03/24 06:56:45;;;;;;;3.40;1.67;;;;;;;;;;6181004;23;20031;-70
2024/03/24 06:59:11;;;;;;;8.73;2.42;;;;;;;;;;6171070;23;20029;-72
2024/03/24 07:01:37;;;;;;;5.22;2.00;;;;;;;;;;6176280;23;20091;-71
2024/03/24 07:04:03;;;;;;;4.95;1.98;;;;;;;;;;6173466;23;20029;-70
2024/03/24 07:06:28;;;;;;;5.38;1.73;;;;;;;;;;6180850;23;20754;-71
2024/03/24 07:08:53;;;;;;;5.63;2.08;;;;;;;;;;6174297;23;20020;-71
2024/03/24 07:11:19;;;;;;;6.57;1.75;;;;;;;;;;6179724;23;20119;-70
2024/03/24 07:13:44;;;;;;;5.32;1.92;;;;;;;;;;6179648;23;20082;-70
2024/03/24 07:16:09;;;;;;;2.88;1.60;;;;;;;;;;6173786;23;20028;-70
2024/03/24 07:18:35;;;;;;;5.28;2.00;;;;;;;;;;6155592;23;20020;-71
2024/03/24 07:21:02;;;;;;;6.05;1.80;;;;;;;;;;6173428;23;20020;-70
2024/03/24 07:23:28;;;;;;;3.67;1.60;;;;;;;;;;6178946;23;20027;-70
2024/03/24 07:25:53;;;;;;;4.57;2.03;;;;;;;;;;6174473;23;20674;-70
2024/03/24 07:28:19;;;;;;;6.55;1.88;;;;;;;;;;6172400;23;20509;-70
2024/03/24 07:30:44;;;;;;;4.47;1.92;;;;;;;;;;6180691;23;20024;-70
2024/03/24 07:33:11;;;;;;;7.10;2.25;;;;;;;;;;6172771;23;20039;-70
2024/03/24 07:35:36;;;;;;;7.00;2.58;;;;;;;;;;6180029;23;20021;-70
2024/03/24 07:38:02;;;;;;;7.65;2.50;;;;;;;;;;6176150;23;20047;-70
2024/03/24 07:40:27;;;;;;;5.60;2.05;;;;;;;;;;6170991;23;20031;-71
2024/03/24 07:42:53;;;;;;;7.90;2.53;;;;;;;;;;6179677;23;20435;-70
2024/03/24 07:45:18;;;;;;;12.95;3.20;;;;;;;;;;6173294;23;20021;-70
2024/03/24 07:47:43;;;;;;;9.70;3.30;;;;;;;;;;6180082;23;20462;-69
2024/03/24 07:50:09;;;;;;;9.65;2.90;;;;;;;;;;6174867;23;20029;-71
2024/03/24 07:52:35;;;;;;;11.65;3.13;;;;;;;;;;6174076;23;20059;-70
2024/03/24 07:55:00;;;;;;;9.07;3.05;;;;;;;;;;6175394;23;20036;-70
2024/03/24 07:57:25;;;;;;;9.30;2.97;;;;;;;;;;6172841;23;20024;-71
2024/03/24 07:59:53;;;;;;;10.85;3.03;;;;;;;;;;6180192;23;20027;-71
2024/03/24 08:02:18;;;;;;;13.65;3.83;;;;;;;;;;6173495;23;20043;-70
2024/03/24 08:04:44;;;;;;;9.63;3.60;;;;;;;;;;6179726;23;20632;-71
2024/03/24 08:07:09;;;;;;;10.25;3.60;;;;;;;;;;6179092;23;20024;-71
2024/03/24 08:09:35;;;;;;;14.77;3.80;;;;;;;;;;6173871;23;20032;-70
2024/03/24 08:12:00;;;;;;;12.52;4.00;;;;;;;;;;6179315;23;20024;-70
2024/03/24 08:14:25;;;;;;;17.23;3.85;;;;;;;;;;6173542;23;20677;-71
2024/03/24 08:16:54;;;;;;;9.95;3.85;;;;;;;;;;6175492;23;20029;-71
2024/03/24 08:19:20;;;;;;;14.43;4.22;;;;;;;;;;6175896;23;20025;-71
2024/03/24 08:21:45;;;;;;;13.82;4.28;;;;;;;;;;6171466;23;20031;-71
2024/03/24 08:24:12;;;;;;;8.85;3.13;;;;;;;;;;6180701;23;20043;-71
2024/03/24 08:26:38;;;;;;;13.25;4.25;;;;;;;;;;6172936;23;20020;-71
2024/03/24 08:29:05;;;;;;;11.57;4.20;;;;;;;;;;6180137;23;20481;-71
2024/03/24 08:31:30;;;;;;;12.27;3.97;;;;;;;;;;6175553;23;20021;-71
2024/03/24 08:33:56;;;;;;;19.25;4.38;;;;;;;;;;6169480;23;20511;-71
2024/03/24 08:36:22;;;;;;;18.10;4.25;;;;;;;;;;6179027;23;20023;-71
2024/03/24 08:38:47;;;;;;;12.07;3.70;;;;;;;;;;6172747;23;20075;-71
2024/03/24 08:41:13;;;;;;;21.23;4.53;;;;;;;;;;6154711;23;20028;-71
2024/03/24 08:43:39;;;;;;;16.90;3.85;;;;;;;;;;6170695;23;20025;-71
2024/03/24 08:46:04;;;;;;;14.57;4.10;;;;;;;;;;6173266;23;20374;-71
2024/03/24 08:48:30;;;;;;;13.65;3.97;;;;;;;;;;6154466;23;20039;-72
2024/03/24 08:50:55;;;;;;;15.68;3.83;;;;;;;;;;6171569;23;20024;-70
2024/03/24 08:53:21;;;;;;;9.75;3.53;;;;;;;;;;6179565;23;20095;-70
2024/03/24 08:55:46;;;;;;;12.90;3.38;;;;;;;;;;6171207;23;20021;-68
2024/03/24 08:58:11;;;;;;;17.73;3.70;;;;;;;;;;6177589;23;20021;-70
2024/03/24 09:00:37;;;;;;;11.32;3.05;;;;;;;;;;6174104;23;20051;-71
2024/03/24 09:03:03;;;;;;;13.60;3.88;;;;;;;;;;6171855;23;20028;-70
2024/03/24 09:05:28;;;;;;;21.58;4.85;;;;;;;;;;6179563;23;20075;-70
2024/03/24 09:07:54;;;;;;;18.38;3.72;;;;;;;;;;6172563;23;20099;-70
2024/03/24 09:10:19;;;;;;;17.63;4.07;;;;;;;;;;6179288;23;20025;-70
2024/03/24 09:12:45;;;;;;;16.02;3.90;;;;;;;;;;6168046;23;20017;-71
2024/03/24 09:15:10;;;;;;;9.52;3.20;;;;;;;;;;6174771;23;20031;-70
2024/03/24 09:17:35;;;;;;;13.48;3.75;;;;;;;;;;6179115;23;20020;-70
2024/03/24 09:20:01;;;;;;;10.10;2.90;;;;;;;;;;6172766;23;20022;-71
2024/03/24 09:22:26;;;;;;;9.45;2.70;;;;;;;;;;6179208;23;20533;-71
2024/03/24 09:24:52;;;;;;;10.07;2.67;;;;;;;;;;6171981;23;20501;-71
2024/03/24 09:27:17;;;;;;;10.02;2.72;;;;;;;;;;6175119;23;20025;-70
2024/03/24 09:29:43;;;;;;;8.65;2.38;;;;;;;;;;6174719;23;20024;-71
2024/03/24 09:32:09;;;;;;;9.02;2.22;;;;;;;;;;6172088;23;20075;-71
2024/03/24 09:34:34;;;;;;;11.43;2.83;;;;;;;;;;6179574;23;20657;-71
2024/03/24 09:37:01;;;;;;;16.33;2.70;;;;;;;;;;6172212;23;20671;-71
2024/03/24 09:39:27;;;;;;;10.80;2.67;;;;;;;;;;6179225;23;20027;-71
2024/03/24 09:41:53;;;;;;;12.60;3.00;;;;;;;;;;6174517;23;20029;-71
2024/03/24 09:44:19;;;;;;;14.85;2.70;;;;;;;;;;6167463;23;20024;-71
2024/03/24 09:46:45;;;;;;;13.48;2.85;;;;;;;;;;6179445;23;20086;-71
2024/03/24 09:49:12;;;;;;;8.80;2.53;;;;;;;;;;6147752;23;20024;-71
2024/03/24 09:51:38;;;;;;;9.77;2.33;;;;;;;;;;6178934;23;20020;-73
2024/03/24 09:54:03;;;;;;;9.68;2.53;;;;;;;;;;6176669;23;20027;-71
2024/03/24 09:56:29;;;;;;;9.13;1.90;;;;;;;;;;6148558;23;20020;-71
2024/03/24 09:58:58;;;;;;;6.78;2.33;;;;;;;;;;6175807;23;20067;-70
2024/03/24 10:01:24;;;;;;;7.75;2.30;;;;;;;;;;6173835;23;20021;-70
2024/03/24 10:03:49;;;;;;;7.18;1.80;;;;;;;;;;6180974;23;20222;-71
2024/03/24 10:06:16;;;;;;;9.40;1.90;;;;;;;;;;6150208;23;20036;-71
2024/03/24 10:08:41;;;;;;;7.18;1.40;;;;;;;;;;6180912;23;20090;-71
2024/03/24 10:11:33;;;;;;;3.90;1.10;;;;;;;;;;6176824;23;20028;-70
2024/03/24 10:14:00;;;;;;;3.85;1.00;;;;;;;;;;6142938;23;20035;-70
2024/03/24 10:16:25;;;;;;;8.45;1.40;;;;;;;;;;6181737;23;20035;-70
2024/03/24 10:18:51;;;;;;;4.35;1.45;;;;;;;;;;6173562;23;20028;-70
2024/03/24 10:21:19;;;;;;;5.43;1.15;;;;;;;;;;6181264;23;20063;-71
2024/03/24 10:23:45;;;;;;;4.82;1.10;;;;;;;;;;6172563;23;20440;-71
2024/03/24 10:26:21;;;;;;;8.30;1.58;;;;;;;;;;6176251;23;20029;-71
2024/03/24 10:28:47;;;;;;;7.75;1.77;;;;;;;;;;6180217;23;20109;-71
2024/03/24 10:31:13;;;;;;;5.25;1.33;;;;;;;;;;6174355;23;20071;-71
2024/03/24 10:33:38;;;;;;;9.45;1.95;;;;;;;;;;6180346;23;20028;-71
2024/03/24 10:36:05;;;;;;;5.55;1.40;;;;;;;;;;6173455;23;20071;-71
2024/03/24 10:38:31;;;;;;;11.00;2.50;;;;;;;;;;6151881;23;20595;-71
2024/03/24 10:40:57;;;;;;;13.20;2.03;;;;;;;;;;6176012;23;20024;-70
2024/03/24 10:43:23;;;;;;;6.47;1.80;;;;;;;;;;6172993;23;20020;-71
2024/03/24 10:45:51;;;;;;;5.05;1.33;;;;;;;;;;6181214;23;20027;-71
2024/03/24 10:48:19;;;;;;;4.63;1.30;;;;;;;;;;6174206;23;20079;-71
2024/03/24 10:50:45;;;;;;;6.45;1.25;;;;;;;;;;6180975;23;20021;-71
2024/03/24 10:53:13;;;;;;;7.70;1.65;;;;;;;;;;6171749;23;20036;-72
2024/03/24 10:55:41;;;;;;;9.13;1.50;;;;;;;;;;6176021;23;20029;-70
2024/03/24 10:58:07;;;;;;;7.65;1.33;;;;;;;;;;6181190;23;20031;-70
2024/03/24 11:00:32;;;;;;;7.72;1.67;;;;;;;;;;6173933;23;20025;-71
2024/03/24 11:02:58;;;;;;;6.95;1.83;;;;;;;;;;6180252;23;20020;-71
2024/03/24 11:05:24;;;;;;;8.82;1.67;;;;;;;;;;6171909;23;20025;-71
2024/03/24 11:07:50;;;;;;;5.57;1.52;;;;;;;;;;6175128;23;20023;-70
2024/03/24 11:10:15;;;;;;;9.43;1.60;;;;;;;;;;6179671;23;20016;-70
2024/03/24 11:12:41;;;;;;;7.72;1.45;;;;;;;;;;6173589;23;20055;-71
2024/03/24 11:15:09;;;;;;;8.32;1.55;;;;;;;;;;6181212;23;20043;-71
2024/03/24 11:17:35;;;;;;;7.38;1.75;;;;;;;;;;6148973;23;20452;-72
2024/03/24 11:20:03;;;;;;;9.57;1.45;;;;;;;;;;6171846;23;20052;-70
2024/03/24 11:22:34;;;;;;;10.43;1.85;;;;;;;;;;6169827;23;20328;-72
2024/03/24 11:25:06;;;;;;;7.88;1.80;;;;;;;;;;6179434;23;20495;-71
2024/03/24 11:27:37;;;;;;;10.35;2.03;;;;;;;;;;6180003;23;20415;-71
2024/03/24 11:30:03;;;;;;;7.50;1.73;;;;;;;;;;6172896;23;20024;-72
2024/03/24 11:32:47;;;;;;;10.65;2.15;;;;;;;;;;6179482;23;20402;-73
2024/03/24 11:35:13;;;;;;;9.23;1.98;;;;;;;;;;6171599;23;20023;-73
2024/03/24 11:37:39;;;;;;;9.25;2.83;;;;;;;;;;6154297;23;20025;-72
2024/03/24 11:40:05;;;;;;;10.10;2.38;;;;;;;;;;6171864;23;20078;-71
2024/03/24 11:42:31;;;;;;;9.60;2.40;;;;;;;;;;6154760;23;20402;-70
2024/03/24 11:45:17;;;;;;;11.13;1.92;;;;;;;;;;6149495;23;20052;-69
2024/03/24 11:47:43;;;;;;;8.68;2.03;;;;;;;;;;6168141;23;20025;-70
2024/03/24 11:50:09;;;;;;;13.88;2.20;;;;;;;;;;6179875;23;20079;-70
2024/03/24 11:52:35;;;;;;;11.80;2.88;;;;;;;;;;6171676;23;20028;-71
2024/03/24 11:55:01;;;;;;;8.55;2.22;;;;;;;;;;6178912;23;20042;-70
2024/03/24 11:57:27;;;;;;;11.88;2.38;;;;;;;;;;6154479;23;20024;-71
2024/03/24 11:59:53;;;;;;;9.15;2.17;;;;;;;;;;6166756;23;20525;-72
2024/03/24 12:02:20;;;;;;;9.98;2.13;;;;;;;;;;6174420;23;20017;-71
2024/03/24 12:04:45;;;;;;;7.35;2.08;;;;;;;;;;6147076;23;20375;-73
2024/03/24 12:07:11;;;;;;;7.90;1.52;;;;;;;;;;6180280;23;20025;-72
2024/03/24 12:09:38;;;;;;;7.70;1.60;;;;;;;;;;6179587;23;20020;-70
2024/03/24 12:12:04;;;;;;;6.85;1.73;;;;;;;;;;6173319;23;20021;-72
2024/03/24 12:14:32;;;;;;;6.20;1.42;;;;;;;;;;6173208;23;20024;-71
2024/03/24 12:17:05;;;;;;;5.97;1.65;;;;;;;;;;6168002;23;20021;-71
2024/03/24 12:19:31;;;;;;;14.80;2.17;;;;;;;;;;6179357;23;20035;-71
2024/03/24 12:21:56;;;;;;;8.55;1.92;;;;;;;;;;6173037;23;20025;-71
2024/03/24 12:24:22;;;;;;;4.72;1.02;;;;;;;;;;6178905;23;20024;-70
2024/03/24 12:26:47;;;;;;;10.85;1.77;;;;;;;;;;6151344;23;20035;-71
2024/03/24 12:29:17;;;;;;;9.88;1.75;;;;;;;;;;6167777;23;20032;-71
2024/03/24 12:31:43;;;;;;;8.45;1.70;;;;;;;;;;6177581;23;20024;-70
2024/03/24 12:34:11;;;;;;;7.63;1.70;;;;;;;;;;6171124;23;20025;-69
2024/03/24 12:36:36;;;;;;;7.65;1.40;;;;;;;;;;6178238;23;20690;-69
2024/03/24 12:39:02;;;;;;;10.52;2.17;;;;;;;;;;6178707;23;20020;-72
2024/03/24 12:41:28;;;;;;;8.07;1.73;;;;;;;;;;6142455;23;20467;-73
2024/03/24 12:43:54;;;;;;;6.85;1.67;;;;;;;;;;6173808;23;20025;-73
2024/03/24 12:46:24;;;;;;;6.80;1.60;;;;;;;;;;6172218;23;20495;-72
2024/03/24 12:48:49;;;;;;;8.80;1.67;;;;;;;;;;6178436;23;20032;-72
2024/03/24 12:51:15;;;;;;;5.68;1.50;;;;;;;;;;6154477;23;20020;-72
2024/03/24 12:54:01;;;;;;;9.57;1.77;;;;;;;;;;6174075;23;20031;-72
2024/03/24 12:56:27;;;;;;;9.90;1.85;;;;;;;;;;6174679;23;20025;-71
2024/03/24 12:58:52;;;;;;;9.85;2.00;;;;;;;;;;6167628;23;20466;-72
2024/03/24 13:01:18;;;;;;;9.20;2.30;;;;;;;;;;6179435;23;20024;-71
2024/03/24 13:03:45;;;;;;;10.60;2.10;;;;;;;;;;6147224;23;20024;-72
2024/03/24 13:06:17;;;;;;;6.35;1.67;;;;;;;;;;6179286;23;20017;-71
2024/03/24 13:08:43;;;;;;;12.98;2.47;;;;;;;;;;6178608;23;20027;-69
2024/03/24 13:11:10;;;;;;;8.95;1.63;;;;;;;;;;6167736;23;20463;-73
2024/03/24 13:13:37;;;;;;;11.23;1.80;;;;;;;;;;6174504;23;20027;-72
2024/03/24 13:16:04;;;;;;;10.27;1.48;;;;;;;;;;6172578;23;20712;-72
2024/03/24 13:18:48;;;;;;;11.90;1.95;;;;;;;;;;6178762;23;20035;-71
2024/03/24 13:21:20;;;;;;;6.38;1.23;;;;;;;;;;6172981;23;20039;-71
2024/03/24 13:23:48;;;;;;;6.82;1.20;;;;;;;;;;6178106;23;20020;-72
2024/03/24 13:26:15;;;;;;;10.10;1.60;;;;;;;;;;6173877;23;20024;-72
2024/03/24 13:28:41;;;;;;;5.55;1.42;;;;;;;;;;6170261;23;20035;-72
2024/03/24 13:31:06;;;;;;;6.28;1.63;;;;;;;;;;6179073;23;20020;-72
2024/03/24 13:33:32;;;;;;;11.48;2.22;;;;;;;;;;6171289;23;20028;-72
2024/03/24 13:35:57;;;;;;;9.02;2.10;;;;;;;;;;6178319;23;20052;-71
2024/03/24 13:38:29;;;;;;;11.38;1.77;;;;;;;;;;6150484;23;20096;-72
2024/03/24 13:40:54;;;;;;;16.08;2.15;;;;;;;;;;6167526;23;20024;-71
2024/03/24 13:43:22;;;;;;;14.38;2.17;;;;;;;;;;6178682;23;20053;-71
2024/03/24 13:45:57;;;;;;;12.23;1.90;;;;;;;;;;6172949;23;20021;-70
2024/03/24 13:48:24;;;;;;;11.32;2.30;;;;;;;;;;6178492;23;20020;-71
2024/03/24 13:50:50;;;;;;;9.35;1.48;;;;;;;;;;6172977;23;20358;-71
2024/03/24 13:53:16;;;;;;;8.85;1.77;;;;;;;;;;6174276;23;20052;-72
2024/03/24 13:55:43;;;;;;;7.35;1.55;;;;;;;;;;6176652;23;20036;-71
2024/03/24 13:58:08;;;;;;;9.88;1.48;;;;;;;;;;6172212;23;20035;-72
2024/03/24 14:00:34;;;;;;;10.48;1.88;;;;;;;;;;6178638;23;20029;-71
2024/03/24 14:02:59;;;;;;;5.82;1.15;;;;;;;;;;6171879;23;20035;-72
2024/03/24 14:05:25;;;;;;;12.50;1.83;;;;;;;;;;6174196;23;20028;-72
2024/03/24 14:07:50;;;;;;;14.32;1.45;;;;;;;;;;6174764;23;20673;-72
2024/03/24 14:10:16;;;;;;;6.85;1.30;;;;;;;;;;6171559;23;20038;-72
2024/03/24 14:12:51;;;;;;;5.88;1.33;;;;;;;;;;6178884;23;20024;-72
2024/03/24 14:15:22;;;;;;;7.50;1.20;;;;;;;;;;6172389;23;20082;-72
2024/03/24 14:17:52;;;;;;;5.43;1.20;;;;;;;;;;6178530;23;20016;-72
2024/03/24 14:20:21;;;;;;;10.45;1.52;;;;;;;;;;6170052;23;20028;-72
2024/03/24 14:22:54;;;;;;;7.82;1.67;;;;;;;;;;6172332;23;20032;-71
2024/03/24 14:25:21;;;;;;;7.95;1.50;;;;;;;;;;6178973;23;20036;-71
2024/03/24 14:27:47;;;;;;;9.00;1.63;;;;;;;;;;6172218;23;20027;-71
2024/03/24 14:30:12;;;;;;;6.10;1.35;;;;;;;;;;6178549;23;20567;-71
2024/03/24 14:32:38;;;;;;;7.35;1.70;;;;;;;;;;6171312;23;20027;-72